Time;durP1;ratioP1;P1;durP2;ratioP2;P2;SDS_P1;SDS_P2;PMS_P1;PMS_P2;Temp;Humidity;BMP_temperature;BMP_pressure;BME280_temperature;BME280_humidity;BME280_pressure;Samples;Min_cycle;Max_cycle;Signal;HPM_P1;HPM_P2
2022/01/12 00:01:54;;;;;;;70.07;35.97;;;26.40;2201.60;;;;;;5043300;28;20017;-59
2022/01/12 00:04:20;;;;;;;57.03;30.27;;;26.40;2201.60;;;;;;5039913;28;20033;-59
2022/01/12 00:06:46;;;;;;;42.83;21.27;;;26.40;2201.60;;;;;;5040193;28;20048;-58
2022/01/12 00:09:12;;;;;;;33.60;18.33;;;26.50;2201.60;;;;;;5041137;28;20029;-59
2022/01/12 00:11:38;;;;;;;37.85;20.55;;;26.30;2201.60;;;;;;5039164;28;20024;-58
2022/01/12 00:14:04;;;;;;;29.45;14.52;;;26.20;2201.60;;;;;;5040598;28;20028;-59
2022/01/12 00:16:31;;;;;;;66.55;31.15;;;26.30;2201.60;;;;;;5041441;28;20037;-59
2022/01/12 00:18:56;;;;;;;42.88;20.92;;;26.50;2201.60;;;;;;5042539;28;20487;-59
2022/01/12 00:21:22;;;;;;;34.10;19.58;;;26.40;2201.60;;;;;;5038943;28;20024;-59
2022/01/12 00:23:48;;;;;;;89.10;41.00;;;26.30;2201.60;;;;;;5040210;28;20021;-60
2022/01/12 00:33:06;;;;;;;40.35;20.75;;;26.30;2201.60;;;;;;5040115;28;20066;-60
2022/01/12 00:34:41;;;;;;;42.45;21.40;;;26.30;2201.60;;;;;;5040429;28;20040;-61
2022/01/12 00:37:06;;;;;;;90.55;46.22;;;26.30;2201.60;;;;;;5039411;28;20017;-59
2022/01/12 00:39:32;;;;;;;32.65;19.17;;;26.40;2201.60;;;;;;5034886;28;20038;-59
2022/01/12 00:41:58;;;;;;;30.58;18.77;;;26.50;2201.60;;;;;;5030848;28;20021;-59
2022/01/12 00:44:31;;;;;;;38.90;22.35;;;51.20;2227.20;;;;;;5030491;28;20045;-58
2022/01/12 00:46:57;;;;;;;;;;;51.20;2227.20;;;;;;5030961;28;20028;-60
2022/01/12 00:49:22;;;;;;;29.65;16.95;;;26.40;2201.60;;;;;;5030403;28;19909;-59
2022/01/12 00:51:53;;;;;;;24.35;16.45;;;26.40;2201.60;;;;;;5030555;28;20113;-58
2022/01/12 00:54:19;;;;;;;24.13;14.95;;;26.40;2201.60;;;;;;5029335;28;20021;-60
2022/01/12 00:56:45;;;;;;;42.80;22.95;;;26.40;2201.60;;;;;;5030550;28;20029;-60
2022/01/12 00:59:11;;;;;;;28.60;16.15;;;26.50;2201.60;;;;;;5030075;28;20040;-60
2022/01/12 01:01:37;;;;;;;42.53;24.20;;;26.50;2201.60;;;;;;5030243;28;20036;-62
2022/01/12 01:04:03;;;;;;;27.73;15.60;;;51.20;2227.20;;;;;;5030184;28;20160;-59
2022/01/12 01:06:30;;;;;;;31.58;19.33;;;26.50;2201.60;;;;;;5029896;28;20022;-60
2022/01/12 01:08:56;;;;;;;35.35;20.67;;;26.50;2201.60;;;;;;5030290;28;20079;-60
2022/01/12 01:11:23;;;;;;;47.22;28.15;;;26.50;2201.60;;;;;;5030276;28;20438;-60
2022/01/12 01:14:02;;;;;;;40.20;22.83;;;26.50;2201.60;;;;;;5030037;28;20039;-60
2022/01/12 01:27:18;;;;;;;34.55;20.13;;;26.50;2201.60;;;;;;5030132;28;20530;-61
2022/01/12 01:29:44;;;;;;;31.02;16.17;;;26.50;2201.60;;;;;;5029993;28;20029;-59
2022/01/12 01:32:11;;;;;;;44.00;24.42;;;26.40;2201.60;;;;;;5029708;28;20135;-61
2022/01/12 01:34:46;;;;;;;47.50;25.27;;;26.30;2201.60;;;;;;5030107;28;20053;-61
2022/01/12 01:37:12;;;;;;;33.13;18.85;;;26.30;2201.60;;;;;;5029973;28;20024;-59
2022/01/12 01:39:38;;;;;;;36.47;21.02;;;26.30;2201.60;;;;;;5029868;28;20038;-59
2022/01/12 01:42:13;;;;;;;40.13;23.50;;;26.20;2201.60;;;;;;5029908;28;20164;-59
2022/01/12 01:53:18;;;;;;;40.40;21.77;;;26.40;2201.60;;;;;;5029650;28;20368;-59
2022/01/12 01:55:40;;;;;;;42.55;23.70;;;26.00;2201.60;;;;;;5033969;28;20411;-59
2022/01/12 01:58:06;;;;;;;34.67;19.67;;;26.00;2201.60;;;;;;5033582;28;20373;-60
2022/01/12 02:00:34;;;;;;;41.70;21.30;;;25.90;2201.60;;;;;;5033465;28;20087;-60
2022/01/12 02:03:01;;;;;;;47.95;28.15;;;26.10;2201.60;;;;;;5033393;28;20025;-60
2022/01/12 02:05:27;;;;;;;38.95;19.35;;;25.90;2201.60;;;;;;5033584;28;20032;-61
2022/01/12 02:07:53;;;;;;;28.58;16.85;;;26.00;2201.60;;;;;;5033430;28;20143;-60
2022/01/12 02:10:19;;;;;;;33.03;18.05;;;26.00;2201.60;;;;;;5033362;28;20060;-60
2022/01/12 02:12:46;;;;;;;37.78;20.45;;;25.90;2201.60;;;;;;5033585;28;20060;-59
2022/01/12 02:15:18;;;;;;;39.38;22.45;;;25.90;2201.60;;;;;;5033251;28;20155;-61
2022/01/12 02:40:37;;;;;;;;;;;26.10;2201.60;;;;;;5033418;28;20472;-59
2022/01/12 02:51:12;;;;;;;79.13;36.13;;;26.20;2201.60;;;;;;5032958;28;20041;-61
2022/01/12 02:53:43;;;;;;;32.72;18.23;;;26.10;2201.60;;;;;;5032770;28;20075;-59
2022/01/12 02:56:12;;;;;;;38.67;20.52;;;26.20;2201.60;;;;;;5032436;28;20475;-60
2022/01/12 02:58:39;;;;;;;42.78;23.30;;;26.00;2201.60;;;;;;5032531;28;20862;-59
2022/01/12 03:03:52;;;;;;;27.00;14.10;;;26.00;2201.60;;;;;;5032500;28;20052;-61
2022/01/12 03:06:22;;;;;;;25.10;16.90;;;25.80;2201.60;;;;;;5032543;28;20367;-59
2022/01/12 03:08:48;;;;;;;51.83;28.65;;;25.90;2201.60;;;;;;5032547;28;20049;-59
2022/01/12 03:11:17;;;;;;;66.18;32.78;;;26.00;2201.60;;;;;;5032394;28;20480;-59
2022/01/12 03:13:44;;;;;;;31.98;17.67;;;25.80;2201.60;;;;;;5032109;28;20415;-59
2022/01/12 03:16:15;;;;;;;29.05;15.15;;;25.70;2201.60;;;;;;5032086;28;20033;-59
2022/01/12 03:18:42;;;;;;;54.00;26.48;;;25.70;2201.60;;;;;;5031944;28;20069;-59
2022/01/12 03:21:09;;;;;;;19.25;11.55;;;25.70;2201.60;;;;;;5032091;28;20030;-59
2022/01/12 03:23:35;;;;;;;18.85;11.80;;;0.90;2201.60;;;;;;5032096;28;20464;-59
2022/01/12 03:26:01;;;;;;;16.65;9.55;;;0.90;2201.60;;;;;;5031908;28;20075;-59
2022/01/12 03:28:27;;;;;;;20.05;12.38;;;0.70;2201.60;;;;;;5032071;28;20029;-58
2022/01/12 03:31:09;;;;;;;17.02;10.55;;;0.70;2201.60;;;;;;5031956;28;20402;-58
2022/01/12 03:38:52;;;;;;;17.08;10.93;;;0.90;2201.60;;;;;;5031795;28;20040;-59
2022/01/12 03:41:18;;;;;;;24.23;15.48;;;25.60;2201.60;;;;;;5031716;28;20029;-60
2022/01/12 03:43:44;;;;;;;29.88;12.60;;;0.80;2201.60;;;;;;5031698;28;20029;-59
2022/01/12 03:46:12;;;;;;;19.20;9.77;;;0.90;2201.60;;;;;;5031687;28;20387;-59
2022/01/12 03:48:37;;;;;;;18.35;10.05;;;0.70;2201.60;;;;;;5031922;28;20057;-60
2022/01/12 03:51:03;;;;;;;20.23;12.38;;;0.50;2201.60;;;;;;5031559;28;20498;-60
2022/01/12 03:53:29;;;;;;;17.13;11.05;;;0.50;2201.60;;;;;;5031461;28;20026;-60
2022/01/12 03:55:55;;;;;;;17.67;11.50;;;0.50;2201.60;;;;;;5031501;28;20030;-60
2022/01/12 03:58:20;;;;;;;21.67;10.32;;;0.60;2201.60;;;;;;5031245;28;20025;-60
2022/01/12 04:00:46;;;;;;;19.67;11.88;;;0.60;2201.60;;;;;;5031362;28;20615;-60
2022/01/12 04:03:14;;;;;;;19.13;12.57;;;0.60;2201.60;;;;;;5031512;28;20026;-60
2022/01/12 04:08:18;;;;;;;22.35;15.05;;;0.40;2201.60;;;;;;5031294;28;20091;-60
2022/01/12 04:08:25;;;;;;;17.10;11.82;;;0.40;2201.60;;;;;;5031086;28;20052;-60
2022/01/12 04:11:00;;;;;;;28.48;15.55;;;0.50;2201.60;;;;;;5031131;28;20022;-60
2022/01/12 04:13:30;;;;;;;19.60;12.68;;;0.50;2201.60;;;;;;5031353;28;20026;-60
2022/01/12 04:15:59;;;;;;;16.83;10.98;;;0.50;2201.60;;;;;;5030985;28;20108;-60
2022/01/12 04:18:25;;;;;;;15.43;10.75;;;0.40;2201.60;;;;;;5031071;28;20037;-59
2022/01/12 04:20:51;;;;;;;26.05;17.52;;;0.30;2201.60;;;;;;5031097;28;20048;-61
2022/01/12 04:23:21;;;;;;;22.90;13.35;;;0.20;2201.60;;;;;;5031102;28;20022;-60
2022/01/12 04:25:52;;;;;;;19.15;11.98;;;0.30;2201.60;;;;;;5031009;28;20029;-59
2022/01/12 04:28:19;;;;;;;21.55;13.80;;;0.20;2201.60;;;;;;5030934;28;20467;-59
2022/01/12 04:30:46;;;;;;;20.25;13.07;;;0.10;2201.60;;;;;;5030852;28;20029;-60
2022/01/12 04:33:12;;;;;;;19.95;11.45;;;0.20;2201.60;;;;;;5030745;28;20423;-59
2022/01/12 04:35:50;;;;;;;22.17;11.60;;;0.10;2201.60;;;;;;5030622;28;20021;-60
2022/01/12 04:38:17;;;;;;;20.45;11.45;;;0.10;2201.60;;;;;;5030700;28;20068;-59
2022/01/12 04:40:44;;;;;;;31.02;19.73;;;0.30;2201.60;;;;;;5030928;28;20399;-59
2022/01/12 04:43:10;;;;;;;27.52;17.13;;;0.30;2201.60;;;;;;5030353;28;20048;-59
2022/01/12 04:46:30;;;;;;;35.40;20.63;;;0.10;2201.60;;;;;;5030487;28;20030;-59
2022/01/12 04:50:55;;;;;;;22.70;12.05;;;0.30;2201.60;;;;;;5030611;28;20095;-60
2022/01/12 04:53:21;;;;;;;21.65;16.05;;;0.40;2201.60;;;;;;5030600;28;20022;-60
2022/01/12 04:55:49;;;;;;;17.20;11.30;;;0.40;2201.60;;;;;;5030655;28;20080;-60
2022/01/12 04:58:15;;;;;;;44.75;23.67;;;0.40;2201.60;;;;;;5030448;28;20048;-60
2022/01/12 05:00:43;;;;;;;23.92;18.27;;;0.30;2201.60;;;;;;5030165;28;20403;-60
2022/01/12 05:13:52;;;;;;;18.08;10.68;;;0.10;2201.60;;;;;;5030084;28;20048;-59
2022/01/12 05:16:19;;;;;;;17.75;10.98;;;0.10;2201.60;;;;;;5030325;28;20475;-60
2022/01/12 05:18:46;;;;;;;19.80;13.88;;;0.10;2201.60;;;;;;5030107;28;20056;-58
2022/01/12 05:21:13;;;;;;;21.88;17.30;;;0.00;2201.60;;;;;;5030204;28;20056;-60
2022/01/12 05:23:39;;;;;;;19.73;13.27;;;0.20;2201.60;;;;;;5030337;28;20159;-60
2022/01/12 05:26:06;;;;;;;17.15;10.07;;;0.10;2201.60;;;;;;5036565;28;20055;-59
2022/01/12 05:28:32;;;;;;;17.98;10.50;;;0.20;2201.60;;;;;;5035518;28;20079;-60
2022/01/12 05:30:59;;;;;;;19.38;10.05;;;0.30;2201.60;;;;;;5050468;28;20079;-60
2022/01/12 05:33:25;;;;;;;18.27;10.70;;;0.10;2201.60;;;;;;5047538;28;20060;-61
2022/01/12 05:35:53;;;;;;;17.75;10.20;;;0.10;2201.60;;;;;;5056722;28;20032;-60
2022/01/12 05:38:20;;;;;;;17.73;11.00;;;0.00;2201.60;;;;;;5056622;28;20110;-60
2022/01/12 05:40:49;;;;;;;22.30;13.25;;;0.10;2201.60;;;;;;5056710;28;20021;-59
2022/01/12 05:43:20;;;;;;;15.27;9.07;;;0.00;2201.60;;;;;;5056417;28;20033;-59
2022/01/12 05:45:47;;;;;;;10.82;7.05;;;13.00;2201.60;;;;;;5056617;28;20032;-60
2022/01/12 05:50:40;;;;;;;29.27;16.40;;;13.10;2201.60;;;;;;5056819;28;21019;-59
2022/01/12 05:53:06;;;;;;;12.48;8.68;;;13.20;2201.60;;;;;;5056586;28;20433;-60
2022/01/12 05:55:32;;;;;;;27.33;14.80;;;13.10;2201.60;;;;;;5056419;28;20025;-60
2022/01/12 05:57:58;;;;;;;18.63;11.38;;;13.00;2201.60;;;;;;5056541;28;20116;-59
2022/01/12 06:00:26;;;;;;;13.73;8.40;;;13.10;2201.60;;;;;;5056354;28;20036;-60
2022/01/12 06:02:51;;;;;;;16.63;9.63;;;13.10;2201.60;;;;;;5056371;28;20111;-61
2022/01/12 06:05:19;;;;;;;55.65;36.90;;;13.00;2201.60;;;;;;5056503;28;20111;-60
2022/01/12 06:07:46;;;;;;;23.30;12.23;;;13.00;2201.60;;;;;;5056391;28;20048;-59
2022/01/12 06:10:11;;;;;;;18.23;8.38;;;13.00;2201.60;;;;;;5056209;28;20475;-59
2022/01/12 06:12:39;;;;;;;17.33;11.23;;;13.00;2201.60;;;;;;5056405;28;20070;-59
2022/01/12 06:15:07;;;;;;;16.73;9.00;;;13.10;2201.60;;;;;;5056190;28;20048;-61
2022/01/12 06:17:33;;;;;;;16.70;8.10;;;13.00;2201.60;;;;;;5056195;28;20060;-60
2022/01/12 06:19:58;;;;;;;56.83;27.75;;;13.00;2201.60;;;;;;5056294;28;20188;-59
2022/01/12 06:22:24;;;;;;;93.82;37.13;;;13.00;2201.60;;;;;;5056123;28;20090;-59
2022/01/12 06:24:55;;;;;;;19.50;11.05;;;13.20;2201.60;;;;;;5056013;28;20039;-60
2022/01/12 06:27:22;;;;;;;72.55;32.03;;;13.10;2201.60;;;;;;5056118;28;20025;-59
2022/01/12 06:30:03;;;;;;;35.85;17.60;;;13.00;2201.60;;;;;;5056038;28;20048;-59
2022/01/12 06:32:32;;;;;;;19.50;14.20;;;13.10;2201.60;;;;;;5056002;28;20091;-59
2022/01/12 06:34:58;;;;;;;16.63;9.55;;;13.10;2201.60;;;;;;5056025;28;20028;-59
2022/01/12 06:37:24;;;;;;;71.55;37.95;;;13.00;2201.60;;;;;;5051900;28;20368;-59
2022/01/12 06:39:50;;;;;;;25.00;13.77;;;12.90;2201.60;;;;;;5052784;28;20124;-61
2022/01/12 06:42:16;;;;;;;26.98;13.27;;;13.00;2201.60;;;;;;5052833;28;20025;-60
2022/01/12 06:44:42;;;;;;;28.73;15.68;;;12.90;2201.60;;;;;;5052581;28;20029;-60
2022/01/12 06:47:08;;;;;;;19.45;10.57;;;0.00;2201.60;;;;;;5052623;28;20025;-59
2022/01/12 06:49:34;;;;;;;13.00;8.50;;;0.00;2201.60;;;;;;5052716;28;20086;-60
2022/01/12 06:52:00;;;;;;;15.38;8.40;;;12.90;2201.60;;;;;;5052586;28;20025;-62
2022/01/12 06:54:26;;;;;;;17.55;9.30;;;12.90;2201.60;;;;;;5052598;28;20033;-62
2022/01/12 06:56:52;;;;;;;17.98;12.95;;;12.90;2201.60;;;;;;5052663;28;20021;-75
2022/01/12 06:59:18;;;;;;;16.70;9.75;;;13.00;2201.60;;;;;;5052480;28;20592;-62
2022/01/12 07:01:44;;;;;;;18.73;12.07;;;0.00;2201.60;;;;;;5052463;28;20094;-67
2022/01/12 07:04:10;;;;;;;15.95;7.78;;;12.90;2201.60;;;;;;5052490;28;20036;-62
2022/01/12 07:06:36;;;;;;;17.88;9.05;;;0.00;2201.60;;;;;;5052339;28;20048;-62
2022/01/12 07:09:04;;;;;;;60.63;33.95;;;0.10;2201.60;;;;;;5052201;28;20486;-75
2022/01/12 07:11:30;;;;;;;89.00;43.67;;;0.10;2201.60;;;;;;5052176;28;20033;-71
2022/01/12 07:13:56;;;;;;;28.10;13.45;;;0.30;2201.60;;;;;;5052299;28;20096;-63
2022/01/12 07:16:22;;;;;;;41.15;21.35;;;0.30;2201.60;;;;;;5052207;28;20474;-74
2022/01/12 07:18:48;;;;;;;20.30;11.70;;;0.30;2201.60;;;;;;5052054;28;20075;-62
2022/01/12 07:21:14;;;;;;;25.48;14.25;;;0.30;2201.60;;;;;;5052368;28;20032;-62
2022/01/12 07:23:39;;;;;;;11.20;8.80;;;0.10;2201.60;;;;;;5052060;28;20053;-74
2022/01/12 07:26:06;;;;;;;18.02;10.60;;;0.10;2201.60;;;;;;5052016;28;20063;-62
2022/01/12 07:28:32;;;;;;;15.63;10.48;;;0.30;2201.60;;;;;;5051919;28;20479;-62
2022/01/12 07:30:58;;;;;;;16.15;10.85;;;0.40;2201.60;;;;;;5051663;28;20064;-62
2022/01/12 07:33:25;;;;;;;10.63;7.18;;;0.50;2201.60;;;;;;5052077;28;20037;-63
2022/01/12 07:35:52;;;;;;;18.30;13.00;;;0.60;2201.60;;;;;;5051842;28;20119;-62
2022/01/12 07:38:18;;;;;;;12.98;7.97;;;0.70;2201.60;;;;;;5051843;28;20253;-62
2022/01/12 07:40:43;;;;;;;14.77;7.10;;;0.60;2201.60;;;;;;5051935;28;20627;-73
2022/01/12 07:43:09;;;;;;;13.88;7.20;;;0.50;2201.60;;;;;;5051554;28;20021;-62
2022/01/12 07:45:36;;;;;;;18.52;11.63;;;0.50;2201.60;;;;;;5051570;28;20467;-75
2022/01/12 07:48:02;;;;;;;39.20;23.55;;;0.40;2201.60;;;;;;5051265;28;20029;-61
2022/01/12 07:50:28;;;;;;;186.25;86.80;;;0.40;2201.60;;;;;;5051260;28;20454;-64
2022/01/12 07:52:54;;;;;;;21.85;11.60;;;0.50;2201.60;;;;;;5051793;28;20055;-69
2022/01/12 07:55:24;;;;;;;18.58;10.85;;;0.50;2201.60;;;;;;5051364;28;20032;-65
2022/01/12 07:57:51;;;;;;;45.03;28.10;;;0.50;2201.60;;;;;;5051187;28;20378;-62
2022/01/12 08:00:18;;;;;;;24.33;14.23;;;0.80;2201.60;;;;;;5051185;28;20489;-62
2022/01/12 08:02:44;;;;;;;39.42;29.15;;;0.80;2201.60;;;;;;5051540;28;20098;-69
2022/01/12 08:05:11;;;;;;;30.05;19.85;;;0.80;2201.60;;;;;;5051396;28;20107;-62
2022/01/12 08:07:38;;;;;;;16.90;10.65;;;0.50;2201.60;;;;;;5051373;28;20451;-62
2022/01/12 08:10:08;;;;;;;93.78;80.70;;;0.80;2201.60;;;;;;5051208;28;20017;-62
2022/01/12 08:12:35;;;;;;;49.67;43.47;;;0.60;2201.60;;;;;;5051303;28;20431;-61
2022/01/12 08:15:02;;;;;;;13.13;7.97;;;25.60;2201.60;;;;;;5050929;28;20033;-62
2022/01/12 08:17:28;;;;;;;18.63;8.77;;;25.60;2201.60;;;;;;5050881;28;20043;-62
2022/01/12 08:19:55;;;;;;;17.85;9.52;;;25.60;2201.60;;;;;;5051174;28;20120;-61
2022/01/12 08:22:21;;;;;;;14.85;6.97;;;25.80;2201.60;;;;;;5050957;28;20013;-74
2022/01/12 08:24:47;;;;;;;18.00;8.52;;;25.60;2201.60;;;;;;5051130;28;20036;-74
2022/01/12 08:27:13;;;;;;;21.58;15.32;;;25.80;2201.60;;;;;;5050816;28;20120;-62
2022/01/12 08:29:39;;;;;;;140.43;97.78;;;25.70;2201.60;;;;;;5050595;28;20429;-62
2022/01/12 08:32:05;;;;;;;63.25;45.40;;;25.60;2201.60;;;;;;5050648;28;20025;-61
2022/01/12 08:34:30;;;;;;;33.60;21.25;;;0.90;2201.60;;;;;;5050582;28;20178;-61
2022/01/12 08:36:56;;;;;;;21.63;12.23;;;0.80;2201.60;;;;;;5050815;28;20053;-61
2022/01/12 08:39:22;;;;;;;23.23;12.98;;;0.90;2201.60;;;;;;5050615;28;20110;-73
2022/01/12 08:41:48;;;;;;;28.15;15.63;;;25.70;2201.60;;;;;;5050388;28;20036;-62
2022/01/12 08:44:14;;;;;;;75.53;42.55;;;25.80;2201.60;;;;;;5050539;28;20033;-61
2022/01/12 08:46:41;;;;;;;23.83;15.27;;;25.90;2201.60;;;;;;5050301;28;20021;-61
2022/01/12 08:49:07;;;;;;;85.05;56.53;;;26.00;2201.60;;;;;;5050507;28;20048;-71
2022/01/12 08:51:34;;;;;;;24.75;13.45;;;25.90;2201.60;;;;;;5050568;28;20363;-62
2022/01/12 08:53:59;;;;;;;19.77;11.40;;;26.00;2201.60;;;;;;5050298;28;20035;-73
2022/01/12 08:56:25;;;;;;;24.90;17.95;;;26.00;2201.60;;;;;;5050262;28;20386;-61
2022/01/12 08:58:51;;;;;;;23.30;17.75;;;26.10;2201.60;;;;;;5049619;28;20087;-61
2022/01/12 09:01:17;;;;;;;13.73;8.93;;;26.40;2201.60;;;;;;5050313;28;20383;-62
2022/01/12 09:03:43;;;;;;;16.23;10.13;;;26.20;2201.60;;;;;;5050182;28;20059;-61
2022/01/12 09:06:09;;;;;;;28.95;20.33;;;26.20;2201.60;;;;;;5050165;28;20359;-61
2022/01/12 09:08:40;;;;;;;17.00;11.27;;;26.00;2201.60;;;;;;5050184;28;20151;-62
2022/01/12 09:11:07;;;;;;;16.77;11.20;;;25.90;2201.60;;;;;;5050324;28;20029;-73
2022/01/12 09:13:33;;;;;;;11.75;7.40;;;25.80;2201.60;;;;;;5050063;28;20513;-67
2022/01/12 09:16:00;;;;;;;13.13;7.43;;;25.90;2201.60;;;;;;5049825;28;20057;-62
2022/01/12 09:18:26;;;;;;;18.27;9.43;;;25.80;2201.60;;;;;;5050246;28;20078;-61
2022/01/12 09:20:53;;;;;;;14.27;9.05;;;25.90;2201.60;;;;;;5050143;28;20390;-75
2022/01/12 09:23:19;;;;;;;16.73;8.90;;;26.00;2201.60;;;;;;5049934;28;20072;-61
2022/01/12 09:25:45;;;;;;;22.17;11.55;;;25.90;2201.60;;;;;;5050057;28;20508;-75
2022/01/12 09:28:11;;;;;;;16.58;10.88;;;26.00;2201.60;;;;;;5049913;28;20117;-64
2022/01/12 09:30:37;;;;;;;17.98;9.23;;;26.00;2201.60;;;;;;5050131;28;20110;-65
2022/01/12 09:33:04;;;;;;;16.25;8.38;;;26.00;2201.60;;;;;;5049992;28;20036;-67
2022/01/12 09:35:30;;;;;;;18.27;11.73;;;26.30;2201.60;;;;;;5050075;28;20417;-65
2022/01/12 09:37:56;;;;;;;14.00;8.50;;;26.40;2201.60;;;;;;5047370;28;20025;-65
2022/01/12 09:40:22;;;;;;;18.13;10.52;;;26.50;2201.60;;;;;;5048365;28;20036;-64
2022/01/12 09:42:48;;;;;;;38.45;28.73;;;26.50;2201.60;;;;;;5048339;28;20087;-64
2022/01/12 09:45:18;;;;;;;17.75;10.60;;;26.30;2201.60;;;;;;5048826;28;20031;-64
2022/01/12 09:47:47;;;;;;;15.30;8.45;;;26.20;2201.60;;;;;;5048459;28;20112;-65
2022/01/12 09:50:15;;;;;;;26.58;16.98;;;26.20;2201.60;;;;;;5049609;28;20060;-64
2022/01/12 09:52:41;;;;;;;19.08;11.57;;;26.40;2201.60;;;;;;5050400;28;20025;-65
2022/01/12 09:55:08;;;;;;;21.38;11.90;;;26.40;2201.60;;;;;;5049979;28;20029;-64
2022/01/12 09:57:34;;;;;;;16.10;11.02;;;51.30;2227.20;;;;;;5049923;28;20463;-66
2022/01/12 10:00:00;;;;;;;18.60;10.65;;;51.30;2227.20;;;;;;5049766;28;20041;-65
2022/01/12 10:02:26;;;;;;;17.63;10.50;;;26.40;2201.60;;;;;;5049990;28;20032;-65
2022/01/12 10:05:06;;;;;;;19.33;10.73;;;51.30;2227.20;;;;;;5050180;28;20025;-69
2022/01/12 10:07:32;;;;;;;20.00;11.18;;;51.30;2227.20;;;;;;5049971;28;20510;-64
2022/01/12 10:10:07;;;;;;;20.10;13.05;;;51.20;2227.20;;;;;;5049940;28;20086;-65
2022/01/12 10:12:34;;;;;;;34.65;22.33;;;51.30;2227.20;;;;;;5053820;28;20040;-65
2022/01/12 10:15:09;;;;;;;20.10;15.35;;;51.30;2227.20;;;;;;5053893;28;20033;-78
2022/01/12 10:17:36;;;;;;;21.05;17.60;;;51.60;2227.20;;;;;;5053884;28;20018;-64
2022/01/12 10:20:22;;;;;;;18.92;10.80;;;52.00;2227.20;;;;;;5053320;28;20410;-64
2022/01/12 10:23:02;;;;;;;19.60;11.60;;;76.90;2227.20;;;;;;5053350;28;20561;-65
2022/01/12 10:25:29;;;;;;;25.88;14.18;;;77.00;2227.20;;;;;;5053727;28;20033;-65
2022/01/12 10:27:56;;;;;;;23.70;15.25;;;77.10;2227.20;;;;;;5053384;28;20025;-64
2022/01/12 10:30:27;;;;;;;24.02;13.18;;;76.90;2227.20;;;;;;5052872;28;20037;-77
2022/01/12 10:33:08;;;;;;;22.83;14.35;;;76.80;2227.20;;;;;;5053390;28;20033;-64
2022/01/12 10:35:37;;;;;;;28.20;16.98;;;76.90;2227.20;;;;;;5053010;28;20037;-66
2022/01/12 10:38:14;;;;;;;19.58;11.85;;;77.00;2227.20;;;;;;5052950;28;20017;-66
2022/01/12 10:40:46;;;;;;;19.00;11.57;;;76.90;2227.20;;;;;;5052969;28;20391;-65
2022/01/12 10:43:32;;;;;;;20.00;12.27;;;76.80;2227.20;;;;;;5053065;28;20028;-77
2022/01/12 10:46:01;;;;;;;27.55;13.65;;;76.80;2227.20;;;;;;5052851;28;20025;-64
2022/01/12 10:48:54;;;;;;;20.05;11.57;;;76.80;2227.20;;;;;;5052745;28;20025;-74
2022/01/12 10:51:23;;;;;;;18.20;10.50;;;76.80;2227.20;;;;;;5052700;28;20098;-77
2022/01/12 10:53:53;;;;;;;27.90;14.52;;;76.90;2227.20;;;;;;5052842;28;20184;-65
2022/01/12 10:56:24;;;;;;;21.75;11.10;;;76.90;2227.20;;;;;;5052572;28;20078;-65
2022/01/12 10:58:52;;;;;;;16.80;11.70;;;77.00;2227.20;;;;;;5052659;28;20068;-66
2022/01/12 11:01:20;;;;;;;15.10;9.20;;;76.90;2227.20;;;;;;5052983;28;20041;-64
2022/01/12 11:03:47;;;;;;;18.83;10.65;;;52.10;2227.20;;;;;;5053141;28;20037;-65
2022/01/12 11:06:14;;;;;;;19.20;10.75;;;51.90;2227.20;;;;;;5052541;28;20025;-64
2022/01/12 11:08:41;;;;;;;21.95;10.80;;;51.90;2227.20;;;;;;5052332;28;20065;-76
2022/01/12 11:11:07;;;;;;;94.22;38.17;;;52.10;2227.20;;;;;;5052579;28;20029;-65
2022/01/12 11:13:34;;;;;;;19.35;9.63;;;76.80;2227.20;;;;;;5052502;28;20033;-64
2022/01/12 11:16:00;;;;;;;17.38;10.60;;;76.90;2227.20;;;;;;5052619;28;20032;-64
2022/01/12 11:18:29;;;;;;;15.88;9.65;;;76.80;2227.20;;;;;;5052392;28;20403;-64
2022/01/12 11:21:10;;;;;;;19.65;11.60;;;76.90;2201.60;;;;;;5052722;28;20032;-66
2022/01/12 11:23:38;;;;;;;22.15;13.07;;;77.30;2176.00;;;;;;5051716;28;20096;-65
2022/01/12 11:26:31;;;;;;;16.85;11.10;;;77.40;2176.00;;;;;;5052648;28;20024;-66
2022/01/12 11:28:59;;;;;;;15.53;9.27;;;77.60;2124.80;;;;;;5052026;28;20041;-77
2022/01/12 11:31:28;;;;;;;14.82;9.00;;;77.40;2124.80;;;;;;5052296;28;20028;-65
2022/01/12 11:33:54;;;;;;;18.75;11.45;;;77.10;2150.40;;;;;;5052281;28;20043;-65
2022/01/12 11:36:36;;;;;;;14.65;8.90;;;77.20;2176.00;;;;;;5051887;28;20021;-77
2022/01/12 11:39:02;;;;;;;14.97;8.57;;;77.30;2150.40;;;;;;5051998;28;20029;-77
2022/01/12 11:41:34;;;;;;;16.85;10.07;;;77.40;2124.80;;;;;;5052034;28;20501;-65
2022/01/12 11:44:12;;;;;;;15.75;10.02;;;77.20;2176.00;;;;;;5051540;28;20472;-65
2022/01/12 11:46:50;;;;;;;16.85;11.23;;;77.20;2176.00;;;;;;5051561;28;20039;-64
2022/01/12 11:49:37;;;;;;;22.20;11.95;;;77.00;2176.00;;;;;;5051556;28;20049;-65
2022/01/12 11:52:15;;;;;;;17.30;10.80;;;77.30;2150.40;;;;;;5051347;28;20036;-65
2022/01/12 11:54:45;;;;;;;21.45;14.15;;;77.30;2124.80;;;;;;5051382;28;20528;-65
2022/01/12 11:57:13;;;;;;;24.25;13.63;;;77.30;2150.40;;;;;;5051332;28;20025;-65
2022/01/12 11:59:50;;;;;;;19.73;13.57;;;77.50;2176.00;;;;;;5051246;28;20044;-66
2022/01/12 12:02:19;;;;;;;15.55;11.23;;;77.40;2150.40;;;;;;5051311;28;20455;-65
2022/01/12 12:04:59;;;;;;;21.45;12.90;;;77.00;2099.20;;;;;;5051416;28;20041;-65
2022/01/12 12:07:26;;;;;;;22.45;11.13;;;76.90;2124.80;;;;;;5051268;28;20053;-66
2022/01/12 12:09:57;;;;;;;26.15;14.98;;;76.80;2124.80;;;;;;5051070;28;20028;-65
2022/01/12 12:12:36;;;;;;;30.27;21.00;;;76.80;2150.40;;;;;;5051191;28;20078;-66
2022/01/12 12:15:06;;;;;;;22.10;12.45;;;77.00;2150.40;;;;;;5051077;28;20079;-66
2022/01/12 12:17:33;;;;;;;22.60;11.88;;;52.00;2176.00;;;;;;5051035;28;20086;-66
2022/01/12 12:20:00;;;;;;;23.02;15.10;;;52.00;2176.00;;;;;;5050951;28;20064;-67
2022/01/12 12:22:28;;;;;;;16.55;11.80;;;51.80;2176.00;;;;;;5051033;28;20032;-67
2022/01/12 12:25:00;;;;;;;18.02;12.18;;;51.50;2227.20;;;;;;5050897;28;20475;-68
2022/01/12 12:27:29;;;;;;;23.20;13.38;;;51.50;2227.20;;;;;;5051115;28;20079;-69
2022/01/12 12:29:55;;;;;;;23.52;12.15;;;51.70;2227.20;;;;;;5050859;28;20082;-68
2022/01/12 12:32:39;;;;;;;30.55;17.88;;;51.40;2227.20;;;;;;5050525;28;20108;-68
2022/01/12 12:35:08;;;;;;;19.13;12.45;;;51.50;2227.20;;;;;;5049808;28;20509;-67
2022/01/12 12:37:46;;;;;;;29.75;19.48;;;51.70;2227.20;;;;;;5050872;28;20029;-68
2022/01/12 12:40:32;;;;;;;20.85;13.15;;;51.60;2227.20;;;;;;5050536;28;20082;-68
2022/01/12 12:43:19;;;;;;;19.67;11.88;;;51.60;2227.20;;;;;;5050667;28;20021;-67
2022/01/12 12:45:56;;;;;;;18.50;11.32;;;51.40;2227.20;;;;;;5050749;28;20391;-68
2022/01/12 12:48:24;;;;;;;18.02;10.27;;;51.30;2227.20;;;;;;5050499;28;20056;-68
2022/01/12 12:51:08;;;;;;;19.52;11.52;;;51.40;2227.20;;;;;;5050283;28;20484;-68
2022/01/12 12:53:40;;;;;;;19.17;12.13;;;51.50;2227.20;;;;;;5050373;28;20078;-67
2022/01/12 12:56:13;;;;;;;23.85;13.80;;;51.60;2227.20;;;;;;5050418;28;20116;-67
2022/01/12 12:58:39;;;;;;;;;;;51.50;2201.60;;;;;;5050588;28;20037;-69
2022/01/12 13:01:07;;;;;;;19.17;10.18;;;51.50;2227.20;;;;;;5050391;28;20328;-66
2022/01/12 13:03:35;;;;;;;25.85;17.05;;;51.30;2227.20;;;;;;5050226;28;20029;-68
2022/01/12 13:06:00;;;;;;;20.10;12.25;;;51.30;2227.20;;;;;;5050329;28;20032;-68
2022/01/12 13:08:26;;;;;;;21.92;13.52;;;51.20;2227.20;;;;;;5050234;28;20041;-68
2022/01/12 13:10:52;;;;;;;18.50;10.50;;;51.20;2227.20;;;;;;5050286;28;20098;-68
2022/01/12 13:13:19;;;;;;;17.05;9.82;;;26.50;2201.60;;;;;;5050296;28;20036;-68
2022/01/12 13:15:45;;;;;;;20.63;12.23;;;26.50;2201.60;;;;;;5050338;28;20056;-68
2022/01/12 13:18:14;;;;;;;20.30;11.43;;;26.50;2201.60;;;;;;5049884;28;20029;-68
2022/01/12 13:23:44;;;;;;;21.40;11.55;;;26.40;2201.60;;;;;;5050292;28;20027;-68
2022/01/12 13:26:15;;;;;;;46.47;31.38;;;26.50;2201.60;;;;;;5049949;28;20029;-68
2022/01/12 13:28:46;;;;;;;43.00;25.17;;;51.30;2227.20;;;;;;5049816;28;20475;-68
2022/01/12 13:31:17;;;;;;;53.55;30.45;;;51.20;2227.20;;;;;;5049759;28;20029;-69
2022/01/12 13:33:48;;;;;;;34.97;18.83;;;51.50;2227.20;;;;;;5049785;28;20368;-68
2022/01/12 13:36:15;;;;;;;25.98;12.45;;;51.50;2201.60;;;;;;5050054;28;20060;-67
2022/01/12 13:38:43;;;;;;;46.97;25.88;;;51.40;2227.20;;;;;;5049806;28;20087;-68
2022/01/12 13:41:11;;;;;;;25.85;16.45;;;51.50;2201.60;;;;;;5049959;28;20059;-69
2022/01/12 13:43:39;;;;;;;52.33;24.98;;;51.50;2227.20;;;;;;5050020;28;20018;-68